createdAt,value
2022-10-04T00:02:58.128Z,13.69
2022-10-04T00:08:03.782Z,13.71
2022-10-04T00:13:05.737Z,13.86
2022-10-04T00:18:18.577Z,13.82
2022-10-04T00:23:41.272Z,13.59
2022-10-04T00:28:48.987Z,13.47
2022-10-04T00:33:49.386Z,13.38
2022-10-04T00:39:04.986Z,13.16
2022-10-04T00:44:06.604Z,13.29
2022-10-04T00:49:08.168Z,13.24
2022-10-04T00:54:13.668Z,13.20
2022-10-04T00:59:33.166Z,13.39
2022-10-04T01:04:40.979Z,13.28
2022-10-04T01:09:49.587Z,13.40
2022-10-04T01:14:58.306Z,13.26
2022-10-04T01:19:58.162Z,13.40
2022-10-04T01:24:58.914Z,13.24
2022-10-04T01:29:58.532Z,13.12
2022-10-04T01:34:58.190Z,12.84
2022-10-04T01:39:58.803Z,12.89
2022-10-04T01:45:01.689Z,12.98
2022-10-04T01:50:02.863Z,12.90
2022-10-04T01:55:07.023Z,12.76
2022-10-04T02:00:10.319Z,12.49
2022-10-04T02:05:13.840Z,12.24
2022-10-04T02:10:20.149Z,12.46
2022-10-04T02:15:21.706Z,12.57
2022-10-04T02:20:23.193Z,12.62
2022-10-04T02:25:23.881Z,12.74
2022-10-04T02:30:26.366Z,12.70
2022-10-04T02:35:27.532Z,12.51
2022-10-04T02:40:33.883Z,12.74
2022-10-04T02:45:43.592Z,12.78
2022-10-04T02:50:48.590Z,12.76
2022-10-04T02:55:49.494Z,12.66
2022-10-04T03:01:03.836Z,12.68
2022-10-04T03:06:08.833Z,12.56
2022-10-04T03:11:09.766Z,12.71
2022-10-04T03:16:09.620Z,12.72
2022-10-04T03:21:12.439Z,12.82
2022-10-04T03:26:22.627Z,12.88
2022-10-04T03:31:26.944Z,12.91
2022-10-04T03:36:27.969Z,12.90
2022-10-04T03:41:28.443Z,12.90
2022-10-04T03:46:28.437Z,12.62
2022-10-04T03:51:28.577Z,12.57
2022-10-04T03:56:31.066Z,12.51
2022-10-04T04:01:38.898Z,12.46
2022-10-04T04:06:45.167Z,12.64
2022-10-04T04:11:49.147Z,12.64
2022-10-04T04:16:48.779Z,12.51
2022-10-04T04:21:48.479Z,12.48
2022-10-04T04:26:54.191Z,12.43
2022-10-04T04:31:56.097Z,12.26
2022-10-04T04:37:00.281Z,12.23
2022-10-04T04:42:01.889Z,12.27
2022-10-04T04:47:00.986Z,12.34
2022-10-04T04:52:00.258Z,12.16
2022-10-04T04:57:00.610Z,12.38
2022-10-04T05:01:59.441Z,12.44
2022-10-04T05:07:03.710Z,12.31
2022-10-04T05:12:11.592Z,12.35
2022-10-04T05:17:19.854Z,12.18
2022-10-04T05:22:22.662Z,12.06
2022-10-04T05:27:28.926Z,12.23
2022-10-04T05:32:37.517Z,12.24
2022-10-04T05:37:49.861Z,12.34
2022-10-04T05:42:50.837Z,12.52
2022-10-04T05:47:52.476Z,12.53
2022-10-04T05:52:53.169Z,12.73
2022-10-04T05:58:06.712Z,12.49
2022-10-04T06:03:29.391Z,12.87
2022-10-04T06:08:38.082Z,12.81
2022-10-04T06:13:55.932Z,12.73
2022-10-04T06:19:24.570Z,12.49
2022-10-04T06:24:27.503Z,12.71
2022-10-04T06:29:33.537Z,12.92
2022-10-04T06:34:55.903Z,12.86
2022-10-04T06:40:35.988Z,12.91
2022-10-04T06:46:00.807Z,13.14
2022-10-04T06:51:13.487Z,13.49
2022-10-04T06:56:35.438Z,13.52
2022-10-04T07:01:37.456Z,13.47
2022-10-04T07:06:40.601Z,13.70
2022-10-04T07:11:43.978Z,14.07
2022-10-04T07:16:47.919Z,13.82
2022-10-04T07:21:55.327Z,14.12
2022-10-04T07:26:56.281Z,14.30
2022-10-04T07:32:08.514Z,14.63
2022-10-04T07:37:12.882Z,15.00
2022-10-04T07:42:21.781Z,15.30
2022-10-04T07:47:25.905Z,15.56
2022-10-04T07:52:39.042Z,15.51
2022-10-04T07:57:41.389Z,16.08
2022-10-04T08:02:52.822Z,15.97
2022-10-04T08:08:22.291Z,16.21
2022-10-04T08:13:26.547Z,16.15
2022-10-04T08:18:44.212Z,16.33
2022-10-04T08:23:57.245Z,16.36
2022-10-04T08:29:27.533Z,16.64
2022-10-04T08:34:44.970Z,15.97
2022-10-04T08:39:59.279Z,16.26
2022-10-04T08:45:22.348Z,16.66
2022-10-04T08:50:55.520Z,17.25
2022-10-04T08:56:10.259Z,18.30
2022-10-04T09:01:56.747Z,19.39
2022-10-04T09:07:13.232Z,21.10
2022-10-04T09:12:23.084Z,21.50
2022-10-04T09:17:24.146Z,21.79
2022-10-04T09:22:41.484Z,22.78
2022-10-04T09:28:10.686Z,23.73
2022-10-04T09:33:32.265Z,24.33
2022-10-04T09:39:28.427Z,25.01
2022-10-04T09:44:54.883Z,25.30
2022-10-04T09:50:18.999Z,25.99
2022-10-04T09:55:41.509Z,26.97
2022-10-04T10:00:47.778Z,27.72
2022-10-04T10:05:58.214Z,28.07
2022-10-04T10:11:22.628Z,28.84
2022-10-04T10:16:42.079Z,28.84
2022-10-04T10:21:56.585Z,28.83
2022-10-04T10:27:19.758Z,30.09
2022-10-04T10:32:37.743Z,30.74
2022-10-04T10:37:51.189Z,31.05
2022-10-04T10:43:13.118Z,30.16
2022-10-04T10:48:18.011Z,29.77
2022-10-04T10:53:48.174Z,29.50
2022-10-04T10:59:30.248Z,30.11
2022-10-04T11:04:51.333Z,31.10
2022-10-04T11:10:16.659Z,31.20
2022-10-04T11:15:52.166Z,31.05
2022-10-04T11:21:25.868Z,30.48
2022-10-04T11:27:01.513Z,31.19
2022-10-04T11:32:37.082Z,30.88
2022-10-04T11:37:54.013Z,31.61
2022-10-04T11:43:14.418Z,32.03
2022-10-04T11:48:21.809Z,33.52
2022-10-04T11:53:54.803Z,32.33
2022-10-04T11:59:21.693Z,31.43
2022-10-04T12:04:56.123Z,30.69
2022-10-04T12:10:04.398Z,30.61
2022-10-04T12:15:41.709Z,29.68
2022-10-04T12:21:13.039Z,28.80
2022-10-04T12:26:50.314Z,27.61
2022-10-04T12:31:56.125Z,26.58
2022-10-04T12:37:06.989Z,26.28
2022-10-04T12:42:22.200Z,26.06
2022-10-04T12:47:57.643Z,26.01
2022-10-04T12:53:06.336Z,26.37
2022-10-04T12:58:09.461Z,27.21
2022-10-04T13:03:31.474Z,27.77
2022-10-04T13:08:47.503Z,28.86
2022-10-04T13:14:30.484Z,30.13
2022-10-04T13:19:35.838Z,30.26
2022-10-04T13:24:56.203Z,30.99
2022-10-04T13:30:02.647Z,31.83
2022-10-04T13:35:14.125Z,31.10
2022-10-04T13:40:39.227Z,30.41
2022-10-04T13:45:50.767Z,29.62
2022-10-04T13:51:07.240Z,29.00
2022-10-04T13:56:34.206Z,28.58
2022-10-04T14:02:10.485Z,28.44
2022-10-04T14:07:51.592Z,28.61
2022-10-04T14:13:06.167Z,28.64
2022-10-04T14:18:59.425Z,28.84
2022-10-04T14:24:41.973Z,28.99
2022-10-04T14:30:02.320Z,28.09
2022-10-04T14:35:06.707Z,27.37
2022-10-04T14:40:53.700Z,26.88
2022-10-04T14:46:25.060Z,25.98
2022-10-04T14:52:08.674Z,25.39
2022-10-04T14:57:15.351Z,25.03
2022-10-04T15:02:48.562Z,24.62
2022-10-04T15:07:51.091Z,24.64
2022-10-04T15:13:12.315Z,24.33
2022-10-04T15:18:28.242Z,24.21
2022-10-04T15:23:48.231Z,23.94
2022-10-04T15:29:01.826Z,23.79
2022-10-04T15:34:06.764Z,23.49
2022-10-04T15:39:25.183Z,23.24
2022-10-04T15:44:44.229Z,22.98
2022-10-04T15:50:21.764Z,22.72
2022-10-04T15:55:24.155Z,22.51
2022-10-04T16:00:28.205Z,22.33
2022-10-04T16:05:36.666Z,22.17
2022-10-04T16:11:01.979Z,21.96
2022-10-04T16:16:42.746Z,21.78
2022-10-04T16:21:52.257Z,21.64
2022-10-04T16:27:28.086Z,21.49
2022-10-04T16:32:32.208Z,21.38
2022-10-04T16:37:36.365Z,21.27
2022-10-04T16:42:56.594Z,21.15
2022-10-04T16:48:04.155Z,21.04
2022-10-04T16:53:21.193Z,20.94
2022-10-04T16:58:56.506Z,20.78
2022-10-04T17:04:15.586Z,20.61
2022-10-04T17:09:25.484Z,20.44
2022-10-04T17:14:56.667Z,20.30
2022-10-04T17:20:03.603Z,20.17
2022-10-04T17:25:18.338Z,20.05
2022-10-04T17:30:22.827Z,19.88
2022-10-04T17:36:07.177Z,19.64
2022-10-04T17:41:18.363Z,19.48
2022-10-04T17:46:24.742Z,19.34
2022-10-04T17:52:03.183Z,19.15
2022-10-04T17:57:17.438Z,19.03
2022-10-04T18:02:23.780Z,18.99
2022-10-04T18:07:28.619Z,18.97
2022-10-04T18:12:31.468Z,18.93
2022-10-04T18:17:39.394Z,18.93
2022-10-04T18:22:48.465Z,18.88
2022-10-04T18:28:07.197Z,18.86
2022-10-04T18:33:16.668Z,18.73
2022-10-04T18:38:24.945Z,18.74
2022-10-04T18:43:27.711Z,18.67
2022-10-04T18:48:39.194Z,18.65
2022-10-04T18:53:45.574Z,18.61
2022-10-04T18:59:25.077Z,18.61
2022-10-04T19:04:33.054Z,18.64
2022-10-04T19:10:02.317Z,18.62
2022-10-04T19:15:09.780Z,18.52
2022-10-04T19:20:18.757Z,18.45
2022-10-04T19:25:32.277Z,18.40
2022-10-04T19:30:54.220Z,18.32
2022-10-04T19:36:08.030Z,18.13
2022-10-04T19:41:19.102Z,18.00
2022-10-04T19:46:29.942Z,17.95
2022-10-04T19:51:35.382Z,17.88
2022-10-04T19:56:41.831Z,17.71
2022-10-04T20:01:40.828Z,17.57
2022-10-04T20:06:40.804Z,17.58
2022-10-04T20:11:51.934Z,17.59
2022-10-04T20:17:13.278Z,17.58
2022-10-04T20:22:51.670Z,17.41
2022-10-04T20:28:04.039Z,17.26
2022-10-04T20:33:02.994Z,17.13
2022-10-04T20:38:31.660Z,17.02
2022-10-04T20:43:54.726Z,16.85
2022-10-04T20:48:55.123Z,16.81
2022-10-04T20:53:53.993Z,16.84
2022-10-04T20:58:56.288Z,16.69
2022-10-04T21:03:55.239Z,16.60
2022-10-04T21:08:54.151Z,16.68
2022-10-04T21:13:59.598Z,16.63
2022-10-04T21:19:48.227Z,16.66
2022-10-04T21:24:55.703Z,16.42
2022-10-04T21:29:56.601Z,16.30
2022-10-04T21:34:55.555Z,16.18
2022-10-04T21:39:54.229Z,16.14
2022-10-04T21:44:53.346Z,16.03
2022-10-04T21:49:55.178Z,15.78
2022-10-04T21:54:53.891Z,15.95
2022-10-04T21:59:52.760Z,15.54
2022-10-04T22:04:51.559Z,15.50
2022-10-04T22:09:52.154Z,15.57
2022-10-04T22:14:50.946Z,15.34
2022-10-04T22:19:49.960Z,15.38
2022-10-04T22:24:48.665Z,15.32
2022-10-04T22:29:49.365Z,15.35
2022-10-04T22:34:48.120Z,14.89
2022-10-04T22:39:46.866Z,14.86
2022-10-04T22:44:46.094Z,14.66
2022-10-04T22:49:48.217Z,14.63
2022-10-04T22:54:48.199Z,14.58
2022-10-04T22:59:49.355Z,14.58
2022-10-04T23:04:52.319Z,14.22
2022-10-04T23:09:51.002Z,14.09
2022-10-04T23:14:49.569Z,14.18
2022-10-04T23:19:50.343Z,14.23
2022-10-04T23:24:49.037Z,14.31
2022-10-04T23:29:48.612Z,14.32
2022-10-04T23:34:56.291Z,14.25
2022-10-04T23:39:55.636Z,14.31
2022-10-04T23:44:54.455Z,14.22
2022-10-04T23:49:55.047Z,14.35
2022-10-04T23:54:55.438Z,14.28
2022-10-04T23:59:54.139Z,14.23
